sensor_id;sensor_type;location;lat;lon;timestamp;pressure;altitude;pressure_sealevel;temperature;humidity
61292;BME280;47165;42.664;23.368;2022-08-19T00:00:24;94743.88;;;25.49;45.66
61292;BME280;47165;42.664;23.368;2022-08-19T00:02:50;94746.09;;;25.45;45.35
61292;BME280;47165;42.664;23.368;2022-08-19T00:05:15;94741.50;;;25.39;44.67
61292;BME280;47165;42.664;23.368;2022-08-19T00:07:42;94741.28;;;25.41;44.95
61292;BME280;47165;42.664;23.368;2022-08-19T00:10:09;94756.69;;;25.39;45.25
61292;BME280;47165;42.664;23.368;2022-08-19T00:12:35;94755.13;;;25.29;45.36
61292;BME280;47165;42.664;23.368;2022-08-19T00:15:04;94743.97;;;25.26;45.43
61292;BME280;47165;42.664;23.368;2022-08-19T00:17:30;94753.53;;;25.20;45.65
61292;BME280;47165;42.664;23.368;2022-08-19T00:19:55;94755.38;;;25.20;46.04
61292;BME280;47165;42.664;23.368;2022-08-19T00:22:21;94759.25;;;25.17;46.87
61292;BME280;47165;42.664;23.368;2022-08-19T00:24:46;94770.28;;;25.14;46.58
61292;BME280;47165;42.664;23.368;2022-08-19T00:27:12;94766.16;;;25.12;46.20
61292;BME280;47165;42.664;23.368;2022-08-19T00:29:38;94764.03;;;25.07;46.51
61292;BME280;47165;42.664;23.368;2022-08-19T00:32:04;94766.88;;;25.05;46.41
61292;BME280;47165;42.664;23.368;2022-08-19T00:34:30;94768.91;;;25.03;47.07
61292;BME280;47165;42.664;23.368;2022-08-19T00:36:56;94766.41;;;25.02;47.15
61292;BME280;47165;42.664;23.368;2022-08-19T00:39:22;94754.81;;;24.95;47.01
61292;BME280;47165;42.664;23.368;2022-08-19T00:41:48;94761.63;;;24.97;47.38
61292;BME280;47165;42.664;23.368;2022-08-19T00:44:15;94760.31;;;24.93;47.52
61292;BME280;47165;42.664;23.368;2022-08-19T00:46:43;94756.72;;;24.86;47.32
61292;BME280;47165;42.664;23.368;2022-08-19T00:51:42;94755.50;;;24.74;46.83
61292;BME280;47165;42.664;23.368;2022-08-19T00:54:10;94753.19;;;24.70;46.98
61292;BME280;47165;42.664;23.368;2022-08-19T00:56:36;94755.09;;;24.62;46.82
61292;BME280;47165;42.664;23.368;2022-08-19T00:59:03;94755.66;;;24.57;47.31
61292;BME280;47165;42.664;23.368;2022-08-19T01:01:39;94750.97;;;24.59;48.19
61292;BME280;47165;42.664;23.368;2022-08-19T01:04:05;94758.00;;;24.52;47.78
61292;BME280;47165;42.664;23.368;2022-08-19T01:06:32;94760.38;;;24.47;48.33
61292;BME280;47165;42.664;23.368;2022-08-19T01:08:59;94765.41;;;24.42;48.35
61292;BME280;47165;42.664;23.368;2022-08-19T01:11:27;94756.91;;;24.38;48.41
61292;BME280;47165;42.664;23.368;2022-08-19T01:13:53;94755.31;;;24.29;48.40
61292;BME280;47165;42.664;23.368;2022-08-19T01:16:20;94752.81;;;24.27;48.27
61292;BME280;47165;42.664;23.368;2022-08-19T01:18:48;94760.19;;;24.25;49.07
61292;BME280;47165;42.664;23.368;2022-08-19T01:21:37;94756.38;;;24.20;49.06
61292;BME280;47165;42.664;23.368;2022-08-19T01:24:04;94755.25;;;24.14;49.34
61292;BME280;47165;42.664;23.368;2022-08-19T01:26:30;94756.63;;;24.10;49.67
61292;BME280;47165;42.664;23.368;2022-08-19T01:28:58;94754.47;;;24.05;49.50
61292;BME280;47165;42.664;23.368;2022-08-19T01:31:26;94756.31;;;24.05;49.13
61292;BME280;47165;42.664;23.368;2022-08-19T01:33:56;94755.66;;;24.03;49.04
61292;BME280;47165;42.664;23.368;2022-08-19T01:36:27;94762.00;;;24.02;48.99
61292;BME280;47165;42.664;23.368;2022-08-19T01:38:53;94755.16;;;23.99;49.17
61292;BME280;47165;42.664;23.368;2022-08-19T01:41:19;94757.88;;;23.91;49.52
61292;BME280;47165;42.664;23.368;2022-08-19T01:43:44;94752.25;;;23.86;49.37
61292;BME280;47165;42.664;23.368;2022-08-19T01:46:10;94749.09;;;23.82;49.54
61292;BME280;47165;42.664;23.368;2022-08-19T01:48:41;94758.78;;;23.83;49.58
61292;BME280;47165;42.664;23.368;2022-08-19T01:51:08;94756.13;;;23.83;49.92
61292;BME280;47165;42.664;23.368;2022-08-19T01:53:34;94757.28;;;23.81;49.70
61292;BME280;47165;42.664;23.368;2022-08-19T01:56:01;94753.13;;;23.78;50.30
61292;BME280;47165;42.664;23.368;2022-08-19T01:58:48;94752.53;;;23.60;50.00
61292;BME280;47165;42.664;23.368;2022-08-19T02:01:15;94755.19;;;23.60;49.74
61292;BME280;47165;42.664;23.368;2022-08-19T02:03:41;94755.88;;;23.54;50.34
61292;BME280;47165;42.664;23.368;2022-08-19T02:06:07;94761.69;;;23.57;50.27
61292;BME280;47165;42.664;23.368;2022-08-19T02:08:35;94759.19;;;23.56;50.82
61292;BME280;47165;42.664;23.368;2022-08-19T02:11:02;94757.88;;;23.52;50.89
61292;BME280;47165;42.664;23.368;2022-08-19T02:13:29;94763.59;;;23.48;51.17
61292;BME280;47165;42.664;23.368;2022-08-19T02:15:55;94751.59;;;23.44;51.04
61292;BME280;47165;42.664;23.368;2022-08-19T02:18:20;94756.75;;;23.46;51.10
61292;BME280;47165;42.664;23.368;2022-08-19T02:20:46;94759.25;;;23.47;50.97
61292;BME280;47165;42.664;23.368;2022-08-19T02:23:13;94757.22;;;23.49;50.96
61292;BME280;47165;42.664;23.368;2022-08-19T02:25:41;94757.06;;;23.51;51.09
61292;BME280;47165;42.664;23.368;2022-08-19T02:28:06;94770.22;;;23.53;51.36
61292;BME280;47165;42.664;23.368;2022-08-19T02:30:32;94761.22;;;23.54;51.41
61292;BME280;47165;42.664;23.368;2022-08-19T02:32:58;94761.22;;;23.54;51.26
61292;BME280;47165;42.664;23.368;2022-08-19T02:35:23;94769.38;;;23.52;51.25
61292;BME280;47165;42.664;23.368;2022-08-19T02:37:49;94762.56;;;23.49;51.51
61292;BME280;47165;42.664;23.368;2022-08-19T02:40:34;94758.94;;;23.42;51.28
61292;BME280;47165;42.664;23.368;2022-08-19T02:43:07;94764.59;;;23.39;51.46
61292;BME280;47165;42.664;23.368;2022-08-19T02:45:37;94764.09;;;23.36;51.75
61292;BME280;47165;42.664;23.368;2022-08-19T02:48:04;94774.63;;;23.29;51.73
61292;BME280;47165;42.664;23.368;2022-08-19T02:50:30;94775.97;;;23.25;51.99
61292;BME280;47165;42.664;23.368;2022-08-19T02:52:56;94777.31;;;23.21;51.87
61292;BME280;47165;42.664;23.368;2022-08-19T02:55:21;94771.69;;;23.16;52.02
61292;BME280;47165;42.664;23.368;2022-08-19T02:57:47;94775.84;;;23.10;52.15
61292;BME280;47165;42.664;23.368;2022-08-19T03:00:13;94778.16;;;23.05;52.54
61292;BME280;47165;42.664;23.368;2022-08-19T03:02:39;94775.88;;;23.02;52.57
61292;BME280;47165;42.664;23.368;2022-08-19T03:05:06;94776.81;;;23.01;52.31
61292;BME280;47165;42.664;23.368;2022-08-19T03:07:31;94772.66;;;22.98;52.92
61292;BME280;47165;42.664;23.368;2022-08-19T03:09:57;94777.69;;;22.93;52.51
61292;BME280;47165;42.664;23.368;2022-08-19T03:12:23;94778.34;;;22.87;52.70
61292;BME280;47165;42.664;23.368;2022-08-19T03:14:48;94766.03;;;22.86;52.56
61292;BME280;47165;42.664;23.368;2022-08-19T03:17:13;94767.03;;;22.85;52.69
61292;BME280;47165;42.664;23.368;2022-08-19T03:19:39;94770.69;;;22.84;52.83
61292;BME280;47165;42.664;23.368;2022-08-19T03:22:05;94766.88;;;22.78;53.09
61292;BME280;47165;42.664;23.368;2022-08-19T03:24:31;94761.06;;;22.75;53.09
61292;BME280;47165;42.664;23.368;2022-08-19T03:26:57;94759.38;;;22.74;53.17
61292;BME280;47165;42.664;23.368;2022-08-19T03:29:26;94760.41;;;22.73;53.28
61292;BME280;47165;42.664;23.368;2022-08-19T03:31:52;94761.75;;;22.68;53.08
61292;BME280;47165;42.664;23.368;2022-08-19T03:34:23;94764.72;;;22.65;53.09
61292;BME280;47165;42.664;23.368;2022-08-19T03:36:52;94768.03;;;22.59;53.44
61292;BME280;47165;42.664;23.368;2022-08-19T03:39:18;94779.03;;;22.56;53.37
61292;BME280;47165;42.664;23.368;2022-08-19T03:41:45;94781.69;;;22.56;53.39
61292;BME280;47165;42.664;23.368;2022-08-19T03:44:13;94783.34;;;22.57;53.23
61292;BME280;47165;42.664;23.368;2022-08-19T03:46:39;94785.69;;;22.52;53.43
61292;BME280;47165;42.664;23.368;2022-08-19T03:49:04;94792.00;;;22.51;53.56
61292;BME280;47165;42.664;23.368;2022-08-19T03:51:37;94797.00;;;22.54;53.53
61292;BME280;47165;42.664;23.368;2022-08-19T03:54:06;94794.34;;;22.54;53.46
61292;BME280;47165;42.664;23.368;2022-08-19T03:56:34;94798.81;;;22.54;53.46
61292;BME280;47165;42.664;23.368;2022-08-19T03:59:00;94797.31;;;22.51;53.72
61292;BME280;47165;42.664;23.368;2022-08-19T04:01:27;94795.16;;;22.46;53.86
61292;BME280;47165;42.664;23.368;2022-08-19T04:03:55;94800.63;;;22.45;53.63
61292;BME280;47165;42.664;23.368;2022-08-19T04:06:24;94816.28;;;22.48;53.60
61292;BME280;47165;42.664;23.368;2022-08-19T04:08:51;94816.09;;;22.49;53.64
61292;BME280;47165;42.664;23.368;2022-08-19T04:11:22;94813.28;;;22.51;53.38
61292;BME280;47165;42.664;23.368;2022-08-19T04:13:49;94809.66;;;22.52;53.65
61292;BME280;47165;42.664;23.368;2022-08-19T04:16:17;94823.25;;;22.57;53.31
61292;BME280;47165;42.664;23.368;2022-08-19T04:18:43;94820.09;;;22.62;53.47
61292;BME280;47165;42.664;23.368;2022-08-19T04:21:16;94819.28;;;22.61;53.54
61292;BME280;47165;42.664;23.368;2022-08-19T04:23:42;94824.94;;;22.58;53.47
61292;BME280;47165;42.664;23.368;2022-08-19T04:26:12;94820.44;;;22.59;53.46
61292;BME280;47165;42.664;23.368;2022-08-19T04:28:39;94824.59;;;22.61;53.77
61292;BME280;47165;42.664;23.368;2022-08-19T04:31:04;94824.59;;;22.61;54.08
61292;BME280;47165;42.664;23.368;2022-08-19T04:33:30;94823.94;;;22.67;53.86
61292;BME280;47165;42.664;23.368;2022-08-19T04:35:55;94828.09;;;22.70;53.86
61292;BME280;47165;42.664;23.368;2022-08-19T04:38:23;94821.28;;;22.76;53.52
61292;BME280;47165;42.664;23.368;2022-08-19T04:40:50;94825.94;;;22.82;53.42
61292;BME280;47165;42.664;23.368;2022-08-19T04:43:36;94819.44;;;22.84;53.30
61292;BME280;47165;42.664;23.368;2022-08-19T04:46:10;94812.97;;;22.87;53.19
61292;BME280;47165;42.664;23.368;2022-08-19T04:48:36;94812.63;;;22.90;53.29
61292;BME280;47165;42.664;23.368;2022-08-19T04:51:06;94804.97;;;22.95;53.19
61292;BME280;47165;42.664;23.368;2022-08-19T04:53:34;94809.94;;;22.98;53.18
61292;BME280;47165;42.664;23.368;2022-08-19T04:56:05;94814.97;;;23.01;53.24
61292;BME280;47165;42.664;23.368;2022-08-19T04:58:32;94816.63;;;23.02;53.09
61292;BME280;47165;42.664;23.368;2022-08-19T05:00:57;94825.44;;;23.03;52.87
61292;BME280;47165;42.664;23.368;2022-08-19T05:03:25;94824.28;;;23.05;52.48
61292;BME280;47165;42.664;23.368;2022-08-19T05:05:51;94822.59;;;22.96;52.90
61292;BME280;47165;42.664;23.368;2022-08-19T05:08:19;94823.63;;;22.95;52.85
61292;BME280;47165;42.664;23.368;2022-08-19T05:10:49;94828.94;;;22.95;52.95
61292;BME280;47165;42.664;23.368;2022-08-19T05:13:17;94823.25;;;22.98;52.67
61292;BME280;47165;42.664;23.368;2022-08-19T05:15:43;94823.63;;;23.03;52.30
61292;BME280;47165;42.664;23.368;2022-08-19T05:18:09;94823.28;;;23.06;52.36
61292;BME280;47165;42.664;23.368;2022-08-19T05:20:53;94822.28;;;23.16;52.29
61292;BME280;47165;42.664;23.368;2022-08-19T05:23:37;94822.75;;;23.19;51.85
61292;BME280;47165;42.664;23.368;2022-08-19T05:26:03;94824.28;;;23.22;51.54
61292;BME280;47165;42.664;23.368;2022-08-19T05:28:29;94820.28;;;23.26;51.27
61292;BME280;47165;42.664;23.368;2022-08-19T05:30:55;94826.56;;;23.33;51.19
61292;BME280;47165;42.664;23.368;2022-08-19T05:33:22;94819.56;;;23.40;50.89
61292;BME280;47165;42.664;23.368;2022-08-19T05:35:48;94829.19;;;23.49;50.77
61292;BME280;47165;42.664;23.368;2022-08-19T05:38:15;94827.50;;;23.57;51.14
61292;BME280;47165;42.664;23.368;2022-08-19T05:40:41;94827.81;;;23.62;50.60
61292;BME280;47165;42.664;23.368;2022-08-19T05:43:08;94832.63;;;23.66;50.65
61292;BME280;47165;42.664;23.368;2022-08-19T05:45:38;94823.28;;;23.70;50.30
61292;BME280;47165;42.664;23.368;2022-08-19T05:48:04;94824.78;;;23.73;49.88
61292;BME280;47165;42.664;23.368;2022-08-19T05:50:30;94826.13;;;23.77;50.07
61292;BME280;47165;42.664;23.368;2022-08-19T05:52:57;94829.75;;;23.84;50.28
61292;BME280;47165;42.664;23.368;2022-08-19T05:55:22;94824.75;;;23.89;50.06
61292;BME280;47165;42.664;23.368;2022-08-19T05:57:48;94829.72;;;23.93;49.97
61292;BME280;47165;42.664;23.368;2022-08-19T06:00:14;94824.50;;;23.99;50.12
61292;BME280;47165;42.664;23.368;2022-08-19T06:02:40;94822.34;;;24.03;50.81
61292;BME280;47165;42.664;23.368;2022-08-19T06:05:07;94834.16;;;24.08;50.80
61292;BME280;47165;42.664;23.368;2022-08-19T06:07:38;94827.28;;;24.14;50.53
61292;BME280;47165;42.664;23.368;2022-08-19T06:10:07;94830.63;;;24.16;49.46
61292;BME280;47165;42.664;23.368;2022-08-19T06:12:33;94829.91;;;24.22;49.76
61292;BME280;47165;42.664;23.368;2022-08-19T06:15:08;94837.03;;;24.30;49.88
61292;BME280;47165;42.664;23.368;2022-08-19T06:17:33;94832.16;;;24.34;50.25
61292;BME280;47165;42.664;23.368;2022-08-19T06:20:01;94830.81;;;24.38;50.07
61292;BME280;47165;42.664;23.368;2022-08-19T06:22:27;94840.94;;;24.42;50.24
61292;BME280;47165;42.664;23.368;2022-08-19T06:24:53;94836.09;;;24.46;50.02
61292;BME280;47165;42.664;23.368;2022-08-19T06:27:19;94832.59;;;24.54;50.04
61292;BME280;47165;42.664;23.368;2022-08-19T06:29:45;94829.19;;;24.60;49.93
61292;BME280;47165;42.664;23.368;2022-08-19T06:32:14;94829.31;;;24.66;49.90
61292;BME280;47165;42.664;23.368;2022-08-19T06:34:41;94833.13;;;24.72;50.20
61292;BME280;47165;42.664;23.368;2022-08-19T06:37:07;94836.28;;;24.76;50.23
61292;BME280;47165;42.664;23.368;2022-08-19T06:39:35;94832.22;;;24.80;50.09
61292;BME280;47165;42.664;23.368;2022-08-19T06:42:04;94830.50;;;24.87;50.24
61292;BME280;47165;42.664;23.368;2022-08-19T06:44:34;94834.13;;;24.94;50.13
61292;BME280;47165;42.664;23.368;2022-08-19T06:47:07;94828.06;;;25.00;49.57
61292;BME280;47165;42.664;23.368;2022-08-19T06:49:33;94825.66;;;25.05;49.85
61292;BME280;47165;42.664;23.368;2022-08-19T06:51:59;94828.97;;;25.07;49.19
61292;BME280;47165;42.664;23.368;2022-08-19T06:54:26;94835.28;;;25.15;49.84
61292;BME280;47165;42.664;23.368;2022-08-19T06:56:52;94825.88;;;25.19;49.42
61292;BME280;47165;42.664;23.368;2022-08-19T06:59:20;94840.84;;;25.28;49.67
61292;BME280;47165;42.664;23.368;2022-08-19T07:01:50;94831.91;;;25.36;48.94
61292;BME280;47165;42.664;23.368;2022-08-19T07:04:20;94840.66;;;25.44;49.36
61292;BME280;47165;42.664;23.368;2022-08-19T07:06:46;94841.31;;;25.46;49.25
61292;BME280;47165;42.664;23.368;2022-08-19T07:09:13;94844.94;;;25.54;49.02
61292;BME280;47165;42.664;23.368;2022-08-19T07:11:44;94850.38;;;25.60;48.43
61292;BME280;47165;42.664;23.368;2022-08-19T07:14:10;94853.13;;;25.67;48.21
61292;BME280;47165;42.664;23.368;2022-08-19T07:16:35;94846.69;;;25.76;48.05
61292;BME280;47165;42.664;23.368;2022-08-19T07:19:01;94848.63;;;25.82;47.78
61292;BME280;47165;42.664;23.368;2022-08-19T07:21:28;94843.00;;;25.92;47.17
61292;BME280;47165;42.664;23.368;2022-08-19T07:23:55;94842.25;;;25.98;46.75
61292;BME280;47165;42.664;23.368;2022-08-19T07:26:24;94835.97;;;26.06;47.01
61292;BME280;47165;42.664;23.368;2022-08-19T07:28:50;94844.53;;;26.16;46.79
61292;BME280;47165;42.664;23.368;2022-08-19T07:31:18;94841.94;;;26.23;46.17
61292;BME280;47165;42.664;23.368;2022-08-19T07:33:47;94841.00;;;26.30;46.17
61292;BME280;47165;42.664;23.368;2022-08-19T07:36:15;94842.75;;;26.38;46.14
61292;BME280;47165;42.664;23.368;2022-08-19T07:38:44;94842.63;;;26.46;45.80
61292;BME280;47165;42.664;23.368;2022-08-19T07:41:15;94846.84;;;26.56;45.39
61292;BME280;47165;42.664;23.368;2022-08-19T07:43:41;94831.91;;;26.61;45.69
61292;BME280;47165;42.664;23.368;2022-08-19T07:46:08;94829.91;;;26.70;44.79
61292;BME280;47165;42.664;23.368;2022-08-19T07:48:34;94836.38;;;26.76;44.42
61292;BME280;47165;42.664;23.368;2022-08-19T07:51:04;94830.50;;;26.87;44.34
61292;BME280;47165;42.664;23.368;2022-08-19T07:53:32;94835.50;;;26.97;44.11
61292;BME280;47165;42.664;23.368;2022-08-19T07:56:01;94838.91;;;27.05;43.96
61292;BME280;47165;42.664;23.368;2022-08-19T07:58:28;94833.78;;;27.10;43.05
61292;BME280;47165;42.664;23.368;2022-08-19T08:00:53;94835.09;;;27.21;42.90
61292;BME280;47165;42.664;23.368;2022-08-19T08:03:20;94834.41;;;27.34;42.99
61292;BME280;47165;42.664;23.368;2022-08-19T08:06:07;94834.28;;;27.42;43.07
61292;BME280;47165;42.664;23.368;2022-08-19T08:08:51;94837.03;;;27.56;43.12
61292;BME280;47165;42.664;23.368;2022-08-19T08:11:35;94828.00;;;27.63;42.58
61292;BME280;47165;42.664;23.368;2022-08-19T08:14:01;94825.59;;;27.75;41.87
61292;BME280;47165;42.664;23.368;2022-08-19T08:16:27;94831.63;;;27.84;41.47
61292;BME280;47165;42.664;23.368;2022-08-19T08:18:55;94821.38;;;27.94;41.71
61292;BME280;47165;42.664;23.368;2022-08-19T08:21:20;94822.22;;;28.01;41.18
61292;BME280;47165;42.664;23.368;2022-08-19T08:23:46;94822.75;;;28.18;40.61
61292;BME280;47165;42.664;23.368;2022-08-19T08:26:11;94823.19;;;28.28;40.47
61292;BME280;47165;42.664;23.368;2022-08-19T08:28:38;94814.53;;;28.40;40.65
61292;BME280;47165;42.664;23.368;2022-08-19T08:31:03;94811.66;;;28.48;40.10
61292;BME280;47165;42.664;23.368;2022-08-19T08:33:29;94815.00;;;28.57;40.06
61292;BME280;47165;42.664;23.368;2022-08-19T08:35:56;94812.13;;;28.65;38.73
61292;BME280;47165;42.664;23.368;2022-08-19T08:38:21;94811.31;;;28.71;38.05
61292;BME280;47165;42.664;23.368;2022-08-19T08:40:49;94814.22;;;28.83;38.07
61292;BME280;47165;42.664;23.368;2022-08-19T08:48:40;94794.63;;;29.22;38.34
61292;BME280;47165;42.664;23.368;2022-08-19T08:51:15;94793.56;;;29.37;38.04
61292;BME280;47165;42.664;23.368;2022-08-19T08:53:45;94796.03;;;29.52;37.94
61292;BME280;47165;42.664;23.368;2022-08-19T08:56:12;94795.19;;;29.64;36.92
61292;BME280;47165;42.664;23.368;2022-08-19T09:01:12;94787.72;;;29.86;36.63
61292;BME280;47165;42.664;23.368;2022-08-19T09:03:40;94786.81;;;29.99;36.15
61292;BME280;47165;42.664;23.368;2022-08-19T09:08:49;94787.13;;;30.23;34.35
61292;BME280;47165;42.664;23.368;2022-08-19T09:16:44;94777.19;;;30.62;33.39
61292;BME280;47165;42.664;23.368;2022-08-19T09:19:09;94779.16;;;30.80;33.27
61292;BME280;47165;42.664;23.368;2022-08-19T09:21:36;94777.41;;;30.92;33.39
61292;BME280;47165;42.664;23.368;2022-08-19T09:24:04;94772.38;;;31.02;31.83
61292;BME280;47165;42.664;23.368;2022-08-19T09:26:31;94773.28;;;31.15;30.14
61292;BME280;47165;42.664;23.368;2022-08-19T09:28:59;94764.31;;;31.21;29.18
61292;BME280;47165;42.664;23.368;2022-08-19T09:31:28;94763.59;;;31.32;28.70
61292;BME280;47165;42.664;23.368;2022-08-19T09:33:54;94765.25;;;31.33;27.66
61292;BME280;47165;42.664;23.368;2022-08-19T09:36:24;94753.63;;;31.33;26.81
61292;BME280;47165;42.664;23.368;2022-08-19T09:38:50;94750.66;;;31.41;26.74
61292;BME280;47165;42.664;23.368;2022-08-19T09:41:19;94753.59;;;31.76;26.39
61292;BME280;47165;42.664;23.368;2022-08-19T09:43:47;94757.13;;;31.95;27.12
61292;BME280;47165;42.664;23.368;2022-08-19T09:46:13;94752.78;;;32.13;27.17
61292;BME280;47165;42.664;23.368;2022-08-19T09:48:40;94752.97;;;32.30;27.29
61292;BME280;47165;42.664;23.368;2022-08-19T09:51:09;94752.22;;;32.41;26.65
61292;BME280;47165;42.664;23.368;2022-08-19T09:53:35;94748.88;;;32.57;26.93
61292;BME280;47165;42.664;23.368;2022-08-19T09:56:02;94749.47;;;32.71;26.63
61292;BME280;47165;42.664;23.368;2022-08-19T09:58:27;94748.22;;;32.85;26.63
61292;BME280;47165;42.664;23.368;2022-08-19T10:00:55;94732.50;;;32.94;25.12
61292;BME280;47165;42.664;23.368;2022-08-19T10:03:20;94730.63;;;33.06;25.36
61292;BME280;47165;42.664;23.368;2022-08-19T10:05:46;94730.41;;;33.20;26.36
61292;BME280;47165;42.664;23.368;2022-08-19T10:08:17;94723.59;;;33.29;24.31
61292;BME280;47165;42.664;23.368;2022-08-19T10:10:43;94722.31;;;33.32;23.58
61292;BME280;47165;42.664;23.368;2022-08-19T10:13:09;94716.88;;;33.43;24.32
61292;BME280;47165;42.664;23.368;2022-08-19T10:15:35;94721.94;;;33.52;24.22
61292;BME280;47165;42.664;23.368;2022-08-19T10:18:01;94718.03;;;33.59;24.52
61292;BME280;47165;42.664;23.368;2022-08-19T10:20:26;94722.06;;;33.69;24.98
61292;BME280;47165;42.664;23.368;2022-08-19T10:22:52;94720.88;;;33.76;24.95
61292;BME280;47165;42.664;23.368;2022-08-19T10:25:17;94717.66;;;33.79;24.49
61292;BME280;47165;42.664;23.368;2022-08-19T10:27:43;94710.25;;;33.86;24.07
61292;BME280;47165;42.664;23.368;2022-08-19T10:30:09;94720.50;;;33.84;23.83
61292;BME280;47165;42.664;23.368;2022-08-19T10:32:34;94713.63;;;33.94;23.95
61292;BME280;47165;42.664;23.368;2022-08-19T10:35:01;94710.19;;;33.98;23.94
61292;BME280;47165;42.664;23.368;2022-08-19T10:37:27;94707.94;;;34.07;23.64
61292;BME280;47165;42.664;23.368;2022-08-19T10:39:52;94699.50;;;33.92;23.38
61292;BME280;47165;42.664;23.368;2022-08-19T10:42:18;94701.66;;;34.06;23.43
61292;BME280;47165;42.664;23.368;2022-08-19T10:44:44;94704.38;;;34.18;22.90
61292;BME280;47165;42.664;23.368;2022-08-19T10:47:11;94696.03;;;34.37;22.73
61292;BME280;47165;42.664;23.368;2022-08-19T10:49:37;94698.53;;;34.55;23.21
61292;BME280;47165;42.664;23.368;2022-08-19T10:52:22;94699.72;;;34.76;23.65
61292;BME280;47165;42.664;23.368;2022-08-19T10:55:01;94700.91;;;34.97;24.37
61292;BME280;47165;42.664;23.368;2022-08-19T10:57:45;94691.50;;;35.05;22.14
61292;BME280;47165;42.664;23.368;2022-08-19T11:00:11;94690.09;;;35.02;21.60
61292;BME280;47165;42.664;23.368;2022-08-19T11:02:36;94689.63;;;35.22;21.84
61292;BME280;47165;42.664;23.368;2022-08-19T11:05:02;94680.31;;;35.35;21.52
61292;BME280;47165;42.664;23.368;2022-08-19T11:07:28;94690.06;;;35.53;22.36
61292;BME280;47165;42.664;23.368;2022-08-19T11:09:53;94688.13;;;35.71;22.20
61292;BME280;47165;42.664;23.368;2022-08-19T11:12:19;94681.22;;;35.85;22.86
61292;BME280;47165;42.664;23.368;2022-08-19T11:14:44;94689.78;;;35.94;22.06
61292;BME280;47165;42.664;23.368;2022-08-19T11:17:10;94688.13;;;36.15;21.74
61292;BME280;47165;42.664;23.368;2022-08-19T11:19:38;94691.53;;;36.27;21.36
61292;BME280;47165;42.664;23.368;2022-08-19T11:22:07;94680.53;;;36.44;21.44
61292;BME280;47165;42.664;23.368;2022-08-19T11:24:33;94679.00;;;36.53;20.85
61292;BME280;47165;42.664;23.368;2022-08-19T11:27:06;94679.50;;;36.77;20.89
61292;BME280;47165;42.664;23.368;2022-08-19T11:29:32;94683.78;;;37.00;21.24
61292;BME280;47165;42.664;23.368;2022-08-19T11:32:00;94667.81;;;37.14;20.70
61292;BME280;47165;42.664;23.368;2022-08-19T11:34:28;94665.22;;;37.35;20.49
61292;BME280;47165;42.664;23.368;2022-08-19T11:36:55;94665.06;;;37.52;20.43
61292;BME280;47165;42.664;23.368;2022-08-19T11:39:25;94662.47;;;37.72;20.91
61292;BME280;47165;42.664;23.368;2022-08-19T11:41:51;94664.16;;;37.89;19.01
61292;BME280;47165;42.664;23.368;2022-08-19T11:44:19;94660.47;;;38.15;19.57
61292;BME280;47165;42.664;23.368;2022-08-19T11:46:45;94657.22;;;38.39;20.05
61292;BME280;47165;42.664;23.368;2022-08-19T11:49:13;94649.34;;;38.68;18.97
61292;BME280;47165;42.664;23.368;2022-08-19T11:51:39;94651.00;;;38.90;19.90
61292;BME280;47165;42.664;23.368;2022-08-19T11:54:07;94652.38;;;39.18;19.19
61292;BME280;47165;42.664;23.368;2022-08-19T11:56:33;94655.31;;;39.52;19.22
61292;BME280;47165;42.664;23.368;2022-08-19T11:59:00;94650.00;;;39.87;18.35
61292;BME280;47165;42.664;23.368;2022-08-19T12:01:26;94648.81;;;40.08;18.09
61292;BME280;47165;42.664;23.368;2022-08-19T12:03:53;94644.78;;;40.45;16.95
61292;BME280;47165;42.664;23.368;2022-08-19T12:06:23;94631.78;;;41.00;16.93
61292;BME280;47165;42.664;23.368;2022-08-19T12:08:51;94628.84;;;41.74;16.74
61292;BME280;47165;42.664;23.368;2022-08-19T12:11:17;94630.03;;;42.49;16.23
61292;BME280;47165;42.664;23.368;2022-08-19T12:13:43;94623.81;;;43.28;15.44
61292;BME280;47165;42.664;23.368;2022-08-19T12:16:16;94618.00;;;43.99;14.73
61292;BME280;47165;42.664;23.368;2022-08-19T12:18:43;94609.19;;;44.61;13.94
61292;BME280;47165;42.664;23.368;2022-08-19T12:21:16;94605.28;;;44.76;13.80
61292;BME280;47165;42.664;23.368;2022-08-19T12:23:42;94608.09;;;45.38;13.68
61292;BME280;47165;42.664;23.368;2022-08-19T12:26:09;94603.63;;;46.09;13.22
61292;BME280;47165;42.664;23.368;2022-08-19T12:28:35;94604.97;;;46.64;12.66
61292;BME280;47165;42.664;23.368;2022-08-19T12:31:00;94593.38;;;47.23;11.82
61292;BME280;47165;42.664;23.368;2022-08-19T12:33:26;94590.25;;;47.71;11.55
61292;BME280;47165;42.664;23.368;2022-08-19T12:35:53;94595.22;;;48.17;11.35
61292;BME280;47165;42.664;23.368;2022-08-19T12:38:19;94591.44;;;48.42;11.24
61292;BME280;47165;42.664;23.368;2022-08-19T12:40:46;94585.00;;;48.50;10.97
61292;BME280;47165;42.664;23.368;2022-08-19T12:43:12;94583.41;;;47.30;10.96
61292;BME280;47165;42.664;23.368;2022-08-19T12:45:39;94586.06;;;47.56;11.59
61292;BME280;47165;42.664;23.368;2022-08-19T12:48:04;94582.63;;;47.21;11.52
61292;BME280;47165;42.664;23.368;2022-08-19T12:50:30;94576.94;;;47.17;11.57
61292;BME280;47165;42.664;23.368;2022-08-19T12:52:56;94585.28;;;47.56;11.88
61292;BME280;47165;42.664;23.368;2022-08-19T12:55:22;94579.44;;;47.79;11.91
61292;BME280;47165;42.664;23.368;2022-08-19T12:57:48;94568.91;;;47.72;11.61
61292;BME280;47165;42.664;23.368;2022-08-19T13:00:19;94572.94;;;47.53;11.29
61292;BME280;47165;42.664;23.368;2022-08-19T13:02:46;94572.09;;;47.83;11.55
61292;BME280;47165;42.664;23.368;2022-08-19T13:05:18;94569.81;;;47.85;10.56
61292;BME280;47165;42.664;23.368;2022-08-19T13:07:46;94566.47;;;47.70;10.45
61292;BME280;47165;42.664;23.368;2022-08-19T13:10:14;94569.44;;;47.65;10.66